sensor_id;sensor_type;location;lat;lon;timestamp;pressure;altitude;pressure_sealevel;temperature;humidity
163;BME280;3946;48.958;8.284;2023-04-05T00:00:07;101073.75;;;2.02;70.65
163;BME280;3946;48.958;8.284;2023-04-05T00:02:56;101086.28;;;2.16;71.19
163;BME280;3946;48.958;8.284;2023-04-05T00:05:42;101082.63;;;2.29;70.89
163;BME280;3946;48.958;8.284;2023-04-05T00:08:28;101088.84;;;2.16;71.90
163;BME280;3946;48.958;8.284;2023-04-05T00:11:13;101111.38;;;1.94;73.06
163;BME280;3946;48.958;8.284;2023-04-05T00:13:59;101107.81;;;2.03;73.07
163;BME280;3946;48.958;8.284;2023-04-05T00:16:47;101102.19;;;1.81;73.49
163;BME280;3946;48.958;8.284;2023-04-05T00:19:33;101105.81;;;1.66;73.65
163;BME280;3946;48.958;8.284;2023-04-05T00:22:21;101109.41;;;1.56;74.68
163;BME280;3946;48.958;8.284;2023-04-05T00:25:08;101089.88;;;2.06;73.83
163;BME280;3946;48.958;8.284;2023-04-05T00:27:53;101088.47;;;1.88;73.91
163;BME280;3946;48.958;8.284;2023-04-05T00:30:38;101096.41;;;1.70;74.17
163;BME280;3946;48.958;8.284;2023-04-05T00:33:24;101092.72;;;1.88;74.68
163;BME280;3946;48.958;8.284;2023-04-05T00:36:11;101081.47;;;1.98;74.09
163;BME280;3946;48.958;8.284;2023-04-05T00:38:56;101079.88;;;1.92;74.00
163;BME280;3946;48.958;8.284;2023-04-05T00:41:41;101078.84;;;2.02;73.44
163;BME280;3946;48.958;8.284;2023-04-05T00:44:27;101065.16;;;2.08;73.66
163;BME280;3946;48.958;8.284;2023-04-05T00:47:17;101056.47;;;2.15;73.01
163;BME280;3946;48.958;8.284;2023-04-05T00:50:02;101051.41;;;2.12;72.66
163;BME280;3946;48.958;8.284;2023-04-05T00:52:49;101045.63;;;2.02;72.79
163;BME280;3946;48.958;8.284;2023-04-05T00:55:34;101045.66;;;2.01;72.69
163;BME280;3946;48.958;8.284;2023-04-05T00:58:20;101047.38;;;2.00;72.47
163;BME280;3946;48.958;8.284;2023-04-05T01:01:06;101044.88;;;1.96;72.57
163;BME280;3946;48.958;8.284;2023-04-05T01:03:58;101039.84;;;1.94;73.35
163;BME280;3946;48.958;8.284;2023-04-05T01:06:55;101040.72;;;1.92;72.99
163;BME280;3946;48.958;8.284;2023-04-05T01:09:47;101024.66;;;1.85;72.52
163;BME280;3946;48.958;8.284;2023-04-05T01:12:36;101022.06;;;1.87;72.81
163;BME280;3946;48.958;8.284;2023-04-05T01:15:22;101020.41;;;1.83;72.43
163;BME280;3946;48.958;8.284;2023-04-05T01:18:07;101017.03;;;1.81;72.39
163;BME280;3946;48.958;8.284;2023-04-05T01:23:58;101026.47;;;1.79;73.24
163;BME280;3946;48.958;8.284;2023-04-05T01:26:56;101028.22;;;1.77;74.17
163;BME280;3946;48.958;8.284;2023-04-05T01:29:53;101038.44;;;1.77;74.15
163;BME280;3946;48.958;8.284;2023-04-05T01:32:45;101055.63;;;1.64;76.22
163;BME280;3946;48.958;8.284;2023-04-05T01:35:33;101057.75;;;1.37;76.85
163;BME280;3946;48.958;8.284;2023-04-05T01:38:22;101061.31;;;1.27;77.52
163;BME280;3946;48.958;8.284;2023-04-05T01:41:08;101050.34;;;1.21;77.74
163;BME280;3946;48.958;8.284;2023-04-05T01:43:53;101052.31;;;1.00;78.34
163;BME280;3946;48.958;8.284;2023-04-05T01:46:40;101053.19;;;0.98;78.37
163;BME280;3946;48.958;8.284;2023-04-05T01:49:25;101051.31;;;1.14;78.04
163;BME280;3946;48.958;8.284;2023-04-05T01:52:10;101047.94;;;1.10;78.34
163;BME280;3946;48.958;8.284;2023-04-05T01:54:55;101031.69;;;1.16;77.34
163;BME280;3946;48.958;8.284;2023-04-05T01:57:40;101022.28;;;1.19;77.23
163;BME280;3946;48.958;8.284;2023-04-05T02:00:25;101011.38;;;1.11;77.16
163;BME280;3946;48.958;8.284;2023-04-05T02:03:12;101025.13;;;0.98;76.84
163;BME280;3946;48.958;8.284;2023-04-05T02:06:00;101024.28;;;0.99;78.43
163;BME280;3946;48.958;8.284;2023-04-05T02:08:45;101023.50;;;0.95;78.31
163;BME280;3946;48.958;8.284;2023-04-05T02:11:30;101027.94;;;0.81;78.04
163;BME280;3946;48.958;8.284;2023-04-05T02:14:16;101022.72;;;0.87;78.76
163;BME280;3946;48.958;8.284;2023-04-05T02:17:02;101019.28;;;0.91;77.85
163;BME280;3946;48.958;8.284;2023-04-05T02:19:48;101015.19;;;0.81;79.02
163;BME280;3946;48.958;8.284;2023-04-05T02:22:35;101027.09;;;0.81;79.48
163;BME280;3946;48.958;8.284;2023-04-05T02:25:20;101026.44;;;0.63;79.92
163;BME280;3946;48.958;8.284;2023-04-05T02:28:05;101027.31;;;0.64;79.71
163;BME280;3946;48.958;8.284;2023-04-05T02:30:50;101032.41;;;0.64;79.49
163;BME280;3946;48.958;8.284;2023-04-05T02:33:35;101019.66;;;0.62;79.62
163;BME280;3946;48.958;8.284;2023-04-05T02:36:22;101023.13;;;0.55;79.67
163;BME280;3946;48.958;8.284;2023-04-05T02:39:07;101017.16;;;0.58;80.00
163;BME280;3946;48.958;8.284;2023-04-05T02:41:51;101021.47;;;0.53;80.34
163;BME280;3946;48.958;8.284;2023-04-05T02:44:36;101015.28;;;0.70;79.81
163;BME280;3946;48.958;8.284;2023-04-05T02:47:22;101003.28;;;0.80;78.81
163;BME280;3946;48.958;8.284;2023-04-05T02:50:12;101015.13;;;0.83;78.97
163;BME280;3946;48.958;8.284;2023-04-05T02:53:02;101010.91;;;0.82;79.38
163;BME280;3946;48.958;8.284;2023-04-05T02:55:50;101007.41;;;0.89;79.37
163;BME280;3946;48.958;8.284;2023-04-05T02:58:35;101012.59;;;0.83;78.85
163;BME280;3946;48.958;8.284;2023-04-05T03:01:20;101009.28;;;0.78;78.61
163;BME280;3946;48.958;8.284;2023-04-05T03:04:07;101008.53;;;0.66;79.40
163;BME280;3946;48.958;8.284;2023-04-05T03:06:51;101010.97;;;0.79;79.08
163;BME280;3946;48.958;8.284;2023-04-05T03:09:39;101018.72;;;0.69;79.60
163;BME280;3946;48.958;8.284;2023-04-05T03:12:27;101012.03;;;0.61;79.79
163;BME280;3946;48.958;8.284;2023-04-05T03:15:12;101008.50;;;0.69;79.71
163;BME280;3946;48.958;8.284;2023-04-05T03:18:01;101012.78;;;0.66;79.43
163;BME280;3946;48.958;8.284;2023-04-05T03:20:46;101012.78;;;0.67;79.76
163;BME280;3946;48.958;8.284;2023-04-05T03:23:36;101005.13;;;0.67;79.94
163;BME280;3946;48.958;8.284;2023-04-05T03:26:23;101003.41;;;0.69;79.18
163;BME280;3946;48.958;8.284;2023-04-05T03:29:10;101006.97;;;0.58;79.13
163;BME280;3946;48.958;8.284;2023-04-05T03:31:56;101005.97;;;0.69;79.57
163;BME280;3946;48.958;8.284;2023-04-05T03:34:41;101010.28;;;0.64;79.73
163;BME280;3946;48.958;8.284;2023-04-05T03:37:28;101009.59;;;0.50;80.46
163;BME280;3946;48.958;8.284;2023-04-05T03:40:19;101021.47;;;0.53;79.79
163;BME280;3946;48.958;8.284;2023-04-05T03:43:07;101019.88;;;0.46;80.75
163;BME280;3946;48.958;8.284;2023-04-05T03:45:52;101019.09;;;0.36;80.99
163;BME280;3946;48.958;8.284;2023-04-05T03:48:37;101024.94;;;0.47;80.07
163;BME280;3946;48.958;8.284;2023-04-05T03:51:22;101026.09;;;0.17;81.91
163;BME280;3946;48.958;8.284;2023-04-05T03:54:07;101026.19;;;0.10;81.31
163;BME280;3946;48.958;8.284;2023-04-05T03:56:54;101015.22;;;0.02;82.08
163;BME280;3946;48.958;8.284;2023-04-05T03:59:41;101016.06;;;0.02;81.87
163;BME280;3946;48.958;8.284;2023-04-05T04:02:26;101025.50;;;-0.06;82.53
163;BME280;3946;48.958;8.284;2023-04-05T04:05:11;101026.25;;;0.04;82.50
163;BME280;3946;48.958;8.284;2023-04-05T04:07:56;101035.88;;;-0.27;83.15
163;BME280;3946;48.958;8.284;2023-04-05T04:10:42;101034.25;;;-0.33;83.68
163;BME280;3946;48.958;8.284;2023-04-05T04:13:38;101027.22;;;-0.08;83.34
163;BME280;3946;48.958;8.284;2023-04-05T04:16:54;101028.06;;;-0.06;83.64
163;BME280;3946;48.958;8.284;2023-04-05T04:19:55;101028.25;;;-0.29;84.18
163;BME280;3946;48.958;8.284;2023-04-05T04:23:13;101024.91;;;-0.36;84.72
163;BME280;3946;48.958;8.284;2023-04-05T04:26:27;101025.81;;;-0.41;84.33
163;BME280;3946;48.958;8.284;2023-04-05T04:29:28;101031.88;;;-0.57;85.20
163;BME280;3946;48.958;8.284;2023-04-05T04:32:43;101022.56;;;-0.64;86.01
163;BME280;3946;48.958;8.284;2023-04-05T04:35:56;101032.00;;;-0.80;87.33
163;BME280;3946;48.958;8.284;2023-04-05T04:38:49;101026.06;;;-0.79;87.67
163;BME280;3946;48.958;8.284;2023-04-05T04:41:43;101023.38;;;-0.53;87.03
163;BME280;3946;48.958;8.284;2023-04-05T04:44:59;101022.56;;;-0.64;86.97
163;BME280;3946;48.958;8.284;2023-04-05T04:48:02;101023.28;;;-0.46;85.99
163;BME280;3946;48.958;8.284;2023-04-05T04:51:01;101019.88;;;-0.45;86.02
163;BME280;3946;48.958;8.284;2023-04-05T04:53:50;101018.38;;;-0.65;86.43
163;BME280;3946;48.958;8.284;2023-04-05T04:56:35;101023.38;;;-0.56;86.70
163;BME280;3946;48.958;8.284;2023-04-05T04:59:20;101018.97;;;-0.33;85.28
163;BME280;3946;48.958;8.284;2023-04-05T05:02:05;101024.94;;;-0.40;86.26
163;BME280;3946;48.958;8.284;2023-04-05T05:04:52;101012.94;;;-0.24;85.02
163;BME280;3946;48.958;8.284;2023-04-05T05:07:40;101011.34;;;-0.38;84.46
163;BME280;3946;48.958;8.284;2023-04-05T05:10:25;101012.06;;;-0.22;85.06
163;BME280;3946;48.958;8.284;2023-04-05T05:13:15;101018.00;;;-0.23;84.37
163;BME280;3946;48.958;8.284;2023-04-05T05:15:59;101015.34;;;-0.11;84.08
163;BME280;3946;48.958;8.284;2023-04-05T05:18:47;101009.34;;;-0.02;83.75
163;BME280;3946;48.958;8.284;2023-04-05T05:21:35;101011.03;;;-0.01;83.93
163;BME280;3946;48.958;8.284;2023-04-05T05:24:20;101023.66;;;0.08;83.41
163;BME280;3946;48.958;8.284;2023-04-05T05:27:05;101027.94;;;0.05;82.77
163;BME280;3946;48.958;8.284;2023-04-05T05:29:50;101029.72;;;-0.02;83.48
163;BME280;3946;48.958;8.284;2023-04-05T05:32:34;101031.28;;;0.11;83.53
163;BME280;3946;48.958;8.284;2023-04-05T05:35:19;101033.03;;;0.05;83.97
163;BME280;3946;48.958;8.284;2023-04-05T05:38:05;101030.13;;;0.38;82.62
163;BME280;3946;48.958;8.284;2023-04-05T05:40:53;101007.38;;;0.92;80.48
163;BME280;3946;48.958;8.284;2023-04-05T05:43:38;100999.88;;;1.39;78.44
163;BME280;3946;48.958;8.284;2023-04-05T05:46:24;100978.84;;;1.76;76.46
163;BME280;3946;48.958;8.284;2023-04-05T05:49:10;100977.34;;;1.63;76.32
163;BME280;3946;48.958;8.284;2023-04-05T05:51:54;100990.22;;;1.58;76.19
163;BME280;3946;48.958;8.284;2023-04-05T05:54:41;100996.31;;;1.48;76.15
163;BME280;3946;48.958;8.284;2023-04-05T05:57:25;101006.66;;;1.40;77.24
163;BME280;3946;48.958;8.284;2023-04-05T06:00:11;101014.56;;;1.24;77.71
163;BME280;3946;48.958;8.284;2023-04-05T06:02:58;101023.72;;;1.37;78.11
163;BME280;3946;48.958;8.284;2023-04-05T06:05:49;101012.75;;;1.30;77.92
163;BME280;3946;48.958;8.284;2023-04-05T06:08:34;101015.81;;;1.54;76.57
163;BME280;3946;48.958;8.284;2023-04-05T06:11:21;100995.59;;;1.42;76.87
163;BME280;3946;48.958;8.284;2023-04-05T06:14:07;100985.19;;;1.52;76.06
163;BME280;3946;48.958;8.284;2023-04-05T06:16:52;100995.16;;;1.67;75.70
163;BME280;3946;48.958;8.284;2023-04-05T06:19:37;100991.59;;;1.78;76.07
163;BME280;3946;48.958;8.284;2023-04-05T06:22:22;100981.09;;;1.93;74.91
163;BME280;3946;48.958;8.284;2023-04-05T06:25:08;100979.97;;;2.07;74.49
163;BME280;3946;48.958;8.284;2023-04-05T06:27:56;100965.88;;;2.30;74.04
163;BME280;3946;48.958;8.284;2023-04-05T06:30:41;100954.28;;;2.55;72.46
163;BME280;3946;48.958;8.284;2023-04-05T06:33:26;100948.28;;;2.58;72.38
163;BME280;3946;48.958;8.284;2023-04-05T06:36:11;100941.84;;;2.77;71.44
163;BME280;3946;48.958;8.284;2023-04-05T06:38:56;100919.56;;;2.84;70.24
163;BME280;3946;48.958;8.284;2023-04-05T06:41:41;100917.09;;;2.79;70.09
163;BME280;3946;48.958;8.284;2023-04-05T06:44:28;100918.56;;;2.89;70.31
163;BME280;3946;48.958;8.284;2023-04-05T06:47:13;100913.94;;;3.05;69.71
163;BME280;3946;48.958;8.284;2023-04-05T06:49:58;100912.06;;;3.11;69.73
163;BME280;3946;48.958;8.284;2023-04-05T06:52:43;100884.78;;;3.10;68.80
163;BME280;3946;48.958;8.284;2023-04-05T06:55:29;100907.03;;;3.08;69.40
163;BME280;3946;48.958;8.284;2023-04-05T06:58:13;100899.16;;;3.16;68.65
163;BME280;3946;48.958;8.284;2023-04-05T07:01:00;100899.22;;;3.13;68.44
163;BME280;3946;48.958;8.284;2023-04-05T07:03:45;100909.22;;;3.24;68.79
163;BME280;3946;48.958;8.284;2023-04-05T07:06:30;100889.50;;;3.60;68.41
163;BME280;3946;48.958;8.284;2023-04-05T07:09:17;100883.66;;;3.87;67.56
163;BME280;3946;48.958;8.284;2023-04-05T07:12:03;100855.50;;;4.15;66.32
163;BME280;3946;48.958;8.284;2023-04-05T07:14:49;100846.59;;;4.27;65.96
163;BME280;3946;48.958;8.284;2023-04-05T07:17:35;100843.94;;;4.30;65.44
163;BME280;3946;48.958;8.284;2023-04-05T07:20:20;100851.13;;;4.46;65.51
163;BME280;3946;48.958;8.284;2023-04-05T07:23:05;100855.06;;;4.56;65.32
163;BME280;3946;48.958;8.284;2023-04-05T07:25:50;100823.63;;;4.78;63.99
163;BME280;3946;48.958;8.284;2023-04-05T07:28:34;100816.28;;;4.92;63.42
163;BME280;3946;48.958;8.284;2023-04-05T07:31:19;100799.59;;;5.05;62.53
163;BME280;3946;48.958;8.284;2023-04-05T07:34:06;100791.69;;;5.11;62.07
163;BME280;3946;48.958;8.284;2023-04-05T07:36:50;100803.00;;;5.06;62.13
163;BME280;3946;48.958;8.284;2023-04-05T07:39:35;100795.59;;;5.21;61.99
163;BME280;3946;48.958;8.284;2023-04-05T07:42:20;100797.13;;;5.27;61.73
163;BME280;3946;48.958;8.284;2023-04-05T07:45:06;100785.81;;;5.56;60.99
163;BME280;3946;48.958;8.284;2023-04-05T07:48:09;100788.03;;;5.42;60.68
163;BME280;3946;48.958;8.284;2023-04-05T07:50:57;100796.78;;;5.61;60.81
163;BME280;3946;48.958;8.284;2023-04-05T07:53:46;100780.13;;;5.71;60.58
163;BME280;3946;48.958;8.284;2023-04-05T07:56:31;100758.53;;;6.00;59.10
163;BME280;3946;48.958;8.284;2023-04-05T07:59:16;100772.66;;;5.65;60.03
163;BME280;3946;48.958;8.284;2023-04-05T08:02:01;100790.97;;;5.79;60.05
163;BME280;3946;48.958;8.284;2023-04-05T08:04:46;100768.81;;;6.00;59.21
163;BME280;3946;48.958;8.284;2023-04-05T08:07:32;100764.53;;;6.21;58.96
163;BME280;3946;48.958;8.284;2023-04-05T08:10:17;100744.16;;;6.16;58.09
163;BME280;3946;48.958;8.284;2023-04-05T08:13:02;100751.34;;;6.30;58.25
163;BME280;3946;48.958;8.284;2023-04-05T08:15:48;100736.22;;;6.64;57.39
163;BME280;3946;48.958;8.284;2023-04-05T08:18:33;100721.31;;;6.51;56.74
163;BME280;3946;48.958;8.284;2023-04-05T08:21:18;100720.13;;;6.38;56.65
163;BME280;3946;48.958;8.284;2023-04-05T08:24:05;100733.25;;;6.31;57.53
163;BME280;3946;48.958;8.284;2023-04-05T08:26:50;100730.34;;;6.81;57.08
163;BME280;3946;48.958;8.284;2023-04-05T08:29:34;100740.50;;;6.64;57.26
163;BME280;3946;48.958;8.284;2023-04-05T08:32:20;100766.72;;;6.94;57.94
163;BME280;3946;48.958;8.284;2023-04-05T08:35:05;100685.63;;;7.02;55.49
163;BME280;3946;48.958;8.284;2023-04-05T08:37:50;100675.28;;;7.23;55.09
163;BME280;3946;48.958;8.284;2023-04-05T08:40:38;100712.84;;;7.28;56.03
163;BME280;3946;48.958;8.284;2023-04-05T08:43:25;100710.28;;;7.08;55.44
163;BME280;3946;48.958;8.284;2023-04-05T08:46:13;100693.59;;;7.35;54.81
163;BME280;3946;48.958;8.284;2023-04-05T08:48:58;100686.00;;;7.70;55.21
163;BME280;3946;48.958;8.284;2023-04-05T08:51:43;100669.78;;;7.49;53.99
163;BME280;3946;48.958;8.284;2023-04-05T08:54:28;100688.09;;;7.24;54.73
163;BME280;3946;48.958;8.284;2023-04-05T08:57:14;100681.81;;;7.49;54.67
163;BME280;3946;48.958;8.284;2023-04-05T09:00:00;100666.59;;;7.44;54.00
163;BME280;3946;48.958;8.284;2023-04-05T09:02:47;100691.16;;;7.70;54.21
163;BME280;3946;48.958;8.284;2023-04-05T09:05:35;100651.38;;;7.76;52.96
163;BME280;3946;48.958;8.284;2023-04-05T09:08:20;100647.16;;;7.92;52.37
163;BME280;3946;48.958;8.284;2023-04-05T09:11:06;100656.66;;;7.72;53.26
163;BME280;3946;48.958;8.284;2023-04-05T09:13:52;100647.06;;;7.76;52.85
163;BME280;3946;48.958;8.284;2023-04-05T09:16:38;100641.06;;;7.76;52.77
163;BME280;3946;48.958;8.284;2023-04-05T09:19:25;100618.25;;;8.02;51.60
163;BME280;3946;48.958;8.284;2023-04-05T09:22:10;100629.19;;;8.25;51.76
163;BME280;3946;48.958;8.284;2023-04-05T09:24:57;100635.78;;;8.30;51.84
163;BME280;3946;48.958;8.284;2023-04-05T09:27:52;100637.00;;;8.23;51.62
163;BME280;3946;48.958;8.284;2023-04-05T09:30:42;100614.69;;;8.05;51.27
163;BME280;3946;48.958;8.284;2023-04-05T09:33:29;100601.78;;;8.22;51.05
163;BME280;3946;48.958;8.284;2023-04-05T09:36:16;100642.84;;;8.61;52.38
163;BME280;3946;48.958;8.284;2023-04-05T09:39:06;100591.00;;;8.49;50.66
163;BME280;3946;48.958;8.284;2023-04-05T09:42:02;100561.69;;;8.50;49.53
163;BME280;3946;48.958;8.284;2023-04-05T09:44:52;100596.63;;;8.57;50.57
163;BME280;3946;48.958;8.284;2023-04-05T09:47:39;100610.31;;;8.41;50.69
163;BME280;3946;48.958;8.284;2023-04-05T09:50:25;100571.50;;;8.43;49.25
163;BME280;3946;48.958;8.284;2023-04-05T09:53:14;100540.13;;;8.66;48.40
163;BME280;3946;48.958;8.284;2023-04-05T09:56:02;100582.59;;;8.94;49.39
163;BME280;3946;48.958;8.284;2023-04-05T09:58:57;100535.34;;;9.23;48.14
163;BME280;3946;48.958;8.284;2023-04-05T10:01:42;100558.34;;;9.28;48.96
163;BME280;3946;48.958;8.284;2023-04-05T10:04:36;100559.97;;;9.60;49.06
163;BME280;3946;48.958;8.284;2023-04-05T10:07:22;100545.47;;;9.58;47.56
163;BME280;3946;48.958;8.284;2023-04-05T10:10:07;100512.91;;;9.39;47.05
163;BME280;3946;48.958;8.284;2023-04-05T10:12:52;100513.72;;;9.40;47.01
163;BME280;3946;48.958;8.284;2023-04-05T10:15:37;100557.34;;;9.30;48.46
163;BME280;3946;48.958;8.284;2023-04-05T10:18:23;100554.56;;;9.49;48.25
163;BME280;3946;48.958;8.284;2023-04-05T10:21:14;100526.25;;;9.92;47.33
163;BME280;3946;48.958;8.284;2023-04-05T10:24:04;100517.63;;;9.77;47.10
163;BME280;3946;48.958;8.284;2023-04-05T10:26:54;100496.63;;;9.67;46.26
163;BME280;3946;48.958;8.284;2023-04-05T10:29:46;100500.91;;;9.23;46.91
163;BME280;3946;48.958;8.284;2023-04-05T10:32:39;100509.50;;;9.23;46.84
163;BME280;3946;48.958;8.284;2023-04-05T10:35:27;100508.78;;;9.51;46.91
163;BME280;3946;48.958;8.284;2023-04-05T10:38:19;100538.59;;;9.72;47.90
163;BME280;3946;48.958;8.284;2023-04-05T10:41:04;100500.31;;;9.63;46.20
163;BME280;3946;48.958;8.284;2023-04-05T10:43:53;100516.91;;;9.59;47.24
163;BME280;3946;48.958;8.284;2023-04-05T10:46:39;100464.84;;;9.65;45.61
163;BME280;3946;48.958;8.284;2023-04-05T10:49:28;100518.53;;;9.46;47.40
163;BME280;3946;48.958;8.284;2023-04-05T10:52:13;100479.91;;;9.43;45.73
163;BME280;3946;48.958;8.284;2023-04-05T10:55:01;100496.72;;;9.66;46.77
163;BME280;3946;48.958;8.284;2023-04-05T10:57:47;100470.22;;;9.91;45.43
163;BME280;3946;48.958;8.284;2023-04-05T11:00:33;100505.94;;;10.14;46.35
163;BME280;3946;48.958;8.284;2023-04-05T11:06:19;100493.44;;;9.92;46.71
163;BME280;3946;48.958;8.284;2023-04-05T11:09:08;100455.16;;;9.83;45.13
163;BME280;3946;48.958;8.284;2023-04-05T11:11:55;100452.59;;;9.97;45.30
163;BME280;3946;48.958;8.284;2023-04-05T11:14:40;100424.22;;;9.96;44.09
163;BME280;3946;48.958;8.284;2023-04-05T11:17:28;100455.97;;;10.28;44.95
163;BME280;3946;48.958;8.284;2023-04-05T11:20:16;100460.53;;;10.08;44.96
163;BME280;3946;48.958;8.284;2023-04-05T11:23:01;100465.94;;;10.48;45.61
163;BME280;3946;48.958;8.284;2023-04-05T11:25:47;100468.63;;;10.32;45.93
163;BME280;3946;48.958;8.284;2023-04-05T11:28:35;100507.75;;;10.56;46.67
163;BME280;3946;48.958;8.284;2023-04-05T11:31:22;100428.81;;;10.62;44.42
163;BME280;3946;48.958;8.284;2023-04-05T11:34:09;100419.03;;;10.52;44.19
163;BME280;3946;48.958;8.284;2023-04-05T11:36:55;100417.19;;;10.40;44.04
163;BME280;3946;48.958;8.284;2023-04-05T11:39:40;100465.94;;;10.05;46.08
163;BME280;3946;48.958;8.284;2023-04-05T11:42:25;100428.94;;;10.46;44.83
163;BME280;3946;48.958;8.284;2023-04-05T11:45:11;100406.41;;;10.61;44.00
163;BME280;3946;48.958;8.284;2023-04-05T11:47:56;100462.59;;;11.01;45.67
163;BME280;3946;48.958;8.284;2023-04-05T11:50:41;100414.91;;;11.04;44.11
163;BME280;3946;48.958;8.284;2023-04-05T11:53:27;100408.47;;;11.09;43.76
163;BME280;3946;48.958;8.284;2023-04-05T11:56:12;100406.06;;;11.06;43.82
163;BME280;3946;48.958;8.284;2023-04-05T11:58:59;100409.28;;;10.97;44.04
163;BME280;3946;48.958;8.284;2023-04-05T12:01:46;100409.50;;;11.07;43.97
163;BME280;3946;48.958;8.284;2023-04-05T12:04:41;100393.22;;;10.78;43.54
163;BME280;3946;48.958;8.284;2023-04-05T12:07:26;100446.13;;;11.02;45.05
163;BME280;3946;48.958;8.284;2023-04-05T12:10:15;100416.22;;;10.97;44.03
163;BME280;3946;48.958;8.284;2023-04-05T12:13:01;100403.16;;;10.98;44.12
163;BME280;3946;48.958;8.284;2023-04-05T12:15:45;100402.91;;;11.28;43.70
163;BME280;3946;48.958;8.284;2023-04-05T12:18:33;100377.63;;;11.32;42.91
163;BME280;3946;48.958;8.284;2023-04-05T12:21:19;100350.59;;;11.21;42.41
163;BME280;3946;48.958;8.284;2023-04-05T12:24:04;100362.25;;;11.41;42.83
163;BME280;3946;48.958;8.284;2023-04-05T12:26:50;100366.28;;;11.20;42.84
163;BME280;3946;48.958;8.284;2023-04-05T12:29:35;100373.16;;;11.34;42.74
163;BME280;3946;48.958;8.284;2023-04-05T12:32:20;100339.94;;;11.39;42.10
163;BME280;3946;48.958;8.284;2023-04-05T12:35:07;100324.38;;;11.39;41.46
163;BME280;3946;48.958;8.284;2023-04-05T12:37:56;100327.94;;;11.50;41.69
163;BME280;3946;48.958;8.284;2023-04-05T12:40:41;100335.28;;;11.56;41.94
163;BME280;3946;48.958;8.284;2023-04-05T12:43:36;100299.06;;;11.80;40.77
163;BME280;3946;48.958;8.284;2023-04-05T12:46:21;100288.91;;;11.52;40.42
163;BME280;3946;48.958;8.284;2023-04-05T12:49:08;100295.53;;;11.56;40.37
163;BME280;3946;48.958;8.284;2023-04-05T12:51:55;100269.06;;;11.38;39.87
163;BME280;3946;48.958;8.284;2023-04-05T12:54:52;100281.63;;;11.82;39.89
163;BME280;3946;48.958;8.284;2023-04-05T12:57:36;100225.09;;;11.11;38.47
163;BME280;3946;48.958;8.284;2023-04-05T13:00:21;100265.38;;;11.91;39.56
163;BME280;3946;48.958;8.284;2023-04-05T13:03:14;100238.88;;;11.99;38.61
163;BME280;3946;48.958;8.284;2023-04-05T13:05:59;100229.88;;;11.92;38.55
163;BME280;3946;48.958;8.284;2023-04-05T13:08:45;100232.56;;;11.29;38.79
163;BME280;3946;48.958;8.284;2023-04-05T13:11:30;100200.72;;;10.88;37.74
163;BME280;3946;48.958;8.284;2023-04-05T13:14:15;100219.47;;;10.67;38.34
163;BME280;3946;48.958;8.284;2023-04-05T13:17:00;100251.53;;;10.91;39.80
163;BME280;3946;48.958;8.284;2023-04-05T13:19:46;100278.72;;;11.49;40.24
163;BME280;3946;48.958;8.284;2023-04-05T13:22:31;100190.25;;;11.77;37.55
163;BME280;3946;48.958;8.284;2023-04-05T13:25:17;100273.66;;;12.33;40.01
163;BME280;3946;48.958;8.284;2023-04-05T13:28:02;100257.50;;;11.93;39.92
163;BME280;3946;48.958;8.284;2023-04-05T13:30:47;100200.53;;;11.66;37.71
163;BME280;3946;48.958;8.284;2023-04-05T13:33:33;100206.00;;;11.87;37.96
163;BME280;3946;48.958;8.284;2023-04-05T13:36:18;100286.34;;;12.73;40.02
163;BME280;3946;48.958;8.284;2023-04-05T13:39:03;100185.47;;;11.22;37.69
163;BME280;3946;48.958;8.284;2023-04-05T13:41:50;100259.38;;;12.39;39.43
163;BME280;3946;48.958;8.284;2023-04-05T13:44:35;100238.47;;;11.93;39.12
163;BME280;3946;48.958;8.284;2023-04-05T13:47:20;100159.69;;;12.97;36.65
163;BME280;3946;48.958;8.284;2023-04-05T13:50:06;100172.50;;;12.19;37.44
163;BME280;3946;48.958;8.284;2023-04-05T13:52:51;100226.56;;;12.84;38.79
163;BME280;3946;48.958;8.284;2023-04-05T13:55:36;100142.63;;;12.48;36.49
163;BME280;3946;48.958;8.284;2023-04-05T13:58:23;100103.75;;;12.69;35.16
163;BME280;3946;48.958;8.284;2023-04-05T14:01:08;100171.72;;;12.87;37.18
163;BME280;3946;48.958;8.284;2023-04-05T14:03:53;100126.47;;;12.89;35.96
163;BME280;3946;48.958;8.284;2023-04-05T14:06:38;100123.28;;;13.08;35.54
163;BME280;3946;48.958;8.284;2023-04-05T14:09:24;100188.38;;;12.73;37.57
163;BME280;3946;48.958;8.284;2023-04-05T14:12:09;100150.75;;;12.55;36.73
163;BME280;3946;48.958;8.284;2023-04-05T14:14:55;100138.16;;;12.61;35.95
163;BME280;3946;48.958;8.284;2023-04-05T14:17:41;100137.53;;;12.58;36.30
163;BME280;3946;48.958;8.284;2023-04-05T14:20:26;100118.28;;;12.72;35.60
163;BME280;3946;48.958;8.284;2023-04-05T14:23:12;100082.84;;;12.48;34.71
163;BME280;3946;48.958;8.284;2023-04-05T14:25:57;100124.97;;;12.41;35.62
163;BME280;3946;48.958;8.284;2023-04-05T14:28:42;100178.97;;;12.94;37.73
163;BME280;3946;48.958;8.284;2023-04-05T14:31:28;100101.97;;;12.47;35.25
163;BME280;3946;48.958;8.284;2023-04-05T14:34:14;100193.13;;;12.79;38.22
163;BME280;3946;48.958;8.284;2023-04-05T14:36:59;100072.56;;;12.58;34.36
163;BME280;3946;48.958;8.284;2023-04-05T14:39:46;100113.53;;;12.54;35.79
163;BME280;3946;48.958;8.284;2023-04-05T14:42:31;100121.94;;;12.69;36.26
163;BME280;3946;48.958;8.284;2023-04-05T14:45:17;100117.63;;;12.81;35.89
163;BME280;3946;48.958;8.284;2023-04-05T14:48:03;100094.09;;;12.82;35.10
163;BME280;3946;48.958;8.284;2023-04-05T14:50:48;100133.44;;;13.00;36.61
163;BME280;3946;48.958;8.284;2023-04-05T14:53:33;100135.31;;;12.65;36.49
163;BME280;3946;48.958;8.284;2023-04-05T14:56:19;100148.44;;;12.63;37.24
163;BME280;3946;48.958;8.284;2023-04-05T14:59:04;100122.19;;;13.00;36.02
163;BME280;3946;48.958;8.284;2023-04-05T15:01:49;100072.09;;;12.53;34.96
163;BME280;3946;48.958;8.284;2023-04-05T15:04:36;100146.41;;;12.55;37.04
163;BME280;3946;48.958;8.284;2023-04-05T15:07:24;100135.22;;;12.66;36.61
163;BME280;3946;48.958;8.284;2023-04-05T15:10:09;100148.88;;;12.68;37.07
163;BME280;3946;48.958;8.284;2023-04-05T15:12:54;100145.69;;;12.18;37.02
163;BME280;3946;48.958;8.284;2023-04-05T15:15:40;100105.63;;;12.45;35.91
163;BME280;3946;48.958;8.284;2023-04-05T15:18:25;100085.28;;;12.27;35.30
163;BME280;3946;48.958;8.284;2023-04-05T15:21:11;100115.75;;;12.25;36.34
163;BME280;3946;48.958;8.284;2023-04-05T15:23:56;100085.72;;;12.21;35.80